createdAt,value
2018-09-15T00:01:06.077Z,3.33
2018-09-15T00:04:09.217Z,3.23
2018-09-15T00:07:12.395Z,3.37
2018-09-15T00:10:15.498Z,3.53
2018-09-15T00:13:19.668Z,3.27
2018-09-15T00:16:22.851Z,3.73
2018-09-15T00:19:26.105Z,3.60
2018-09-15T00:22:29.185Z,3.83
2018-09-15T00:25:32.248Z,3.50
2018-09-15T00:28:35.473Z,4.03
2018-09-15T00:31:38.635Z,3.87
2018-09-15T00:34:41.722Z,3.63
2018-09-15T00:37:44.871Z,3.50
2018-09-15T00:40:48.020Z,3.60
2018-09-15T00:43:52.229Z,3.80
2018-09-15T00:46:55.410Z,3.63
2018-09-15T00:49:58.568Z,3.70
2018-09-15T00:53:01.684Z,4.40
2018-09-15T00:56:04.872Z,3.70
2018-09-15T00:59:08.093Z,4.37
2018-09-15T01:02:11.203Z,4.60
2018-09-15T01:05:14.190Z,4.40
2018-09-15T01:08:17.384Z,4.33
2018-09-15T01:11:20.529Z,4.30
2018-09-15T01:14:23.685Z,3.67
2018-09-15T01:17:26.782Z,4.87
2018-09-15T01:20:30.001Z,4.47
2018-09-15T01:23:33.468Z,3.90
2018-09-15T01:26:36.572Z,4.77
2018-09-15T01:29:39.661Z,3.87
2018-09-15T01:32:42.776Z,3.73
2018-09-15T01:35:45.855Z,4.07
2018-09-15T01:38:49.046Z,3.30
2018-09-15T01:41:52.087Z,4.20
2018-09-15T01:44:55.197Z,4.40
2018-09-15T01:47:58.276Z,4.70
2018-09-15T01:51:01.392Z,4.43
2018-09-15T01:54:04.584Z,4.27
2018-09-15T01:57:07.849Z,3.80
2018-09-15T02:00:10.921Z,4.13
2018-09-15T02:03:14.101Z,4.03
2018-09-15T02:06:17.482Z,4.33
2018-09-15T02:09:20.592Z,4.03
2018-09-15T02:12:23.693Z,3.57
2018-09-15T02:15:26.929Z,4.10
2018-09-15T02:18:30.433Z,3.97
2018-09-15T02:21:33.734Z,3.87
2018-09-15T02:24:36.867Z,4.03
2018-09-15T02:27:40.360Z,3.87
2018-09-15T02:30:44.502Z,4.40
2018-09-15T02:33:47.738Z,4.43
2018-09-15T02:36:51.909Z,4.47
2018-09-15T02:39:55.978Z,4.10
2018-09-15T02:42:59.107Z,4.10
2018-09-15T02:46:03.426Z,3.77
2018-09-15T02:49:06.711Z,3.90
2018-09-15T02:52:09.862Z,3.83
2018-09-15T02:55:13.095Z,3.70
2018-09-15T02:58:16.418Z,3.90
2018-09-15T03:01:19.845Z,3.90
2018-09-15T03:04:23.074Z,3.87
2018-09-15T03:07:26.193Z,3.80
2018-09-15T03:10:29.576Z,3.37
2018-09-15T03:13:32.767Z,4.20
2018-09-15T03:16:36.209Z,4.13
2018-09-15T03:19:39.278Z,4.60
2018-09-15T03:22:42.470Z,4.47
2018-09-15T03:25:45.714Z,4.60
2018-09-15T03:28:48.806Z,4.33
2018-09-15T03:31:51.872Z,4.40
2018-09-15T03:34:55.248Z,4.23
2018-09-15T03:37:58.346Z,4.47
2018-09-15T03:41:01.485Z,4.20
2018-09-15T03:44:04.578Z,4.17
2018-09-15T03:47:07.754Z,4.30
2018-09-15T03:50:10.938Z,4.47
2018-09-15T03:53:15.844Z,4.33
2018-09-15T03:56:19.026Z,4.40
2018-09-15T03:59:22.214Z,4.20
2018-09-15T04:02:25.379Z,4.70
2018-09-15T04:06:00.022Z,4.87
2018-09-15T04:09:04.775Z,4.80
2018-09-15T04:12:08.071Z,4.47
2018-09-15T04:15:11.161Z,4.57
2018-09-15T04:18:15.623Z,5.33
2018-09-15T04:21:18.752Z,5.50
2018-09-15T04:24:21.761Z,5.37
2018-09-15T04:27:24.798Z,5.63
2018-09-15T04:30:27.898Z,5.07
2018-09-15T04:33:31.083Z,4.20
2018-09-15T04:36:35.216Z,4.50
2018-09-15T04:39:38.332Z,5.57
2018-09-15T04:42:41.563Z,5.20
2018-09-15T04:45:44.798Z,5.40
2018-09-15T04:48:48.198Z,4.57
2018-09-15T04:51:51.326Z,5.40
2018-09-15T04:54:54.893Z,5.73
2018-09-15T04:57:58.299Z,5.57
2018-09-15T05:01:01.468Z,4.90
2018-09-15T05:04:04.833Z,6.80
2018-09-15T05:07:08.093Z,6.27
2018-09-15T05:10:11.224Z,5.37
2018-09-15T05:13:14.417Z,5.80
2018-09-15T05:16:17.636Z,5.83
2018-09-15T05:19:20.827Z,5.33
2018-09-15T05:22:23.888Z,5.57
2018-09-15T05:25:27.054Z,5.63
2018-09-15T05:28:30.276Z,5.80
2018-09-15T05:31:33.477Z,4.60
2018-09-15T05:34:36.600Z,6.10
2018-09-15T05:37:39.765Z,5.63
2018-09-15T05:40:42.758Z,5.93
2018-09-15T05:43:45.849Z,5.40
2018-09-15T05:46:48.934Z,5.27
2018-09-15T05:49:52.112Z,5.00
2018-09-15T05:52:55.217Z,5.03
2018-09-15T05:55:58.365Z,4.17
2018-09-15T05:59:01.441Z,4.43
2018-09-15T06:02:04.515Z,4.93
2018-09-15T06:05:07.635Z,4.80
2018-09-15T06:08:10.679Z,5.00
2018-09-15T06:11:13.914Z,4.93
2018-09-15T06:14:16.984Z,5.13
2018-09-15T06:17:20.091Z,4.80
2018-09-15T06:20:23.259Z,5.10
2018-09-15T06:23:26.289Z,4.30
2018-09-15T06:26:31.228Z,4.70
2018-09-15T06:29:39.590Z,4.63
2018-09-15T06:32:42.772Z,4.40
2018-09-15T06:35:46.026Z,4.57
2018-09-15T06:38:50.286Z,5.13
2018-09-15T06:41:53.464Z,5.23
2018-09-15T06:45:06.880Z,4.90
2018-09-15T06:48:10.143Z,4.40
2018-09-15T06:51:13.351Z,4.13
2018-09-15T06:58:18.980Z,3.67
2018-09-15T07:01:22.391Z,4.53
2018-09-15T07:04:25.588Z,4.07
2018-09-15T07:07:37.358Z,3.63
2018-09-15T07:10:40.787Z,4.33
2018-09-15T07:13:49.789Z,3.50
2018-09-15T07:16:53.029Z,3.70
2018-09-15T07:19:56.330Z,4.07
2018-09-15T07:22:59.458Z,3.47
2018-09-15T07:26:02.740Z,3.37
2018-09-15T07:29:06.002Z,3.50
2018-09-15T07:32:11.986Z,3.47
2018-09-15T07:35:15.202Z,2.93
2018-09-15T07:38:18.281Z,3.40
2018-09-15T07:41:21.339Z,3.83
2018-09-15T07:44:24.619Z,3.53
2018-09-15T07:47:27.835Z,3.23
2018-09-15T07:50:31.036Z,3.03
2018-09-15T07:53:34.335Z,3.17
2018-09-15T07:56:37.550Z,3.20
2018-09-15T07:59:40.725Z,3.17
2018-09-15T08:02:43.808Z,3.00
2018-09-15T08:05:47.288Z,3.03
2018-09-15T08:08:50.389Z,2.33
2018-09-15T08:11:53.548Z,2.20
2018-09-15T08:14:56.702Z,1.97
2018-09-15T08:18:00.142Z,2.10
2018-09-15T08:21:03.406Z,1.57
2018-09-15T08:24:07.073Z,1.00
2018-09-15T08:27:10.243Z,1.13
2018-09-15T08:30:13.449Z,1.10
2018-09-15T08:33:16.637Z,1.43
2018-09-15T08:36:19.876Z,1.10
2018-09-15T08:39:23.076Z,0.87
2018-09-15T08:42:26.327Z,0.90
2018-09-15T08:45:29.975Z,0.80
2018-09-15T08:48:33.164Z,0.90
2018-09-15T08:51:36.392Z,1.00
2018-09-15T08:54:39.728Z,0.80
2018-09-15T08:57:42.866Z,0.70
2018-09-15T09:00:46.210Z,0.70
2018-09-15T09:03:49.469Z,0.70
2018-09-15T09:06:52.590Z,0.80
2018-09-15T09:09:55.944Z,0.77
2018-09-15T09:12:59.223Z,0.80
2018-09-15T09:16:02.475Z,0.70
2018-09-15T09:19:05.738Z,0.50
2018-09-15T09:22:09.059Z,0.50
2018-09-15T09:25:12.454Z,0.50
2018-09-15T09:28:15.903Z,0.40
2018-09-15T09:31:19.239Z,0.30
2018-09-15T09:34:29.981Z,0.27
2018-09-15T09:37:33.210Z,0.30
2018-09-15T09:40:36.465Z,1.03
2018-09-15T09:43:39.787Z,0.30
2018-09-15T09:46:42.949Z,0.40
2018-09-15T09:49:46.171Z,0.53
2018-09-15T09:52:49.309Z,0.40
2018-09-15T09:55:52.643Z,0.40
2018-09-15T09:58:55.844Z,0.40
2018-09-15T10:02:07.552Z,0.70
2018-09-15T10:05:10.972Z,0.70
2018-09-15T10:08:14.233Z,0.50
2018-09-15T10:11:17.307Z,0.37
2018-09-15T10:14:20.444Z,0.40
2018-09-15T10:17:24.518Z,0.60
2018-09-15T10:20:27.615Z,0.40
2018-09-15T10:23:30.757Z,0.30
2018-09-15T10:26:33.829Z,0.30
2018-09-15T10:29:37.094Z,0.40
2018-09-15T10:32:40.372Z,0.37
2018-09-15T10:35:43.816Z,0.40
2018-09-15T10:38:46.957Z,0.40
2018-09-15T10:41:50.266Z,0.50
2018-09-15T10:44:53.475Z,0.30
2018-09-15T10:47:56.653Z,0.40
2018-09-15T10:50:59.864Z,0.40
2018-09-15T10:54:03.038Z,0.30
2018-09-15T10:57:06.462Z,0.40
2018-09-15T11:00:10.686Z,0.30
2018-09-15T11:03:13.875Z,0.30
2018-09-15T11:06:17.031Z,0.40
2018-09-15T11:09:20.393Z,0.30
2018-09-15T11:12:23.621Z,0.30
2018-09-15T11:15:26.809Z,0.20
2018-09-15T11:18:29.911Z,0.30
2018-09-15T11:21:33.216Z,0.40
2018-09-15T11:24:36.407Z,0.30
2018-09-15T11:27:39.542Z,0.30
2018-09-15T11:30:42.849Z,0.50
2018-09-15T11:33:46.089Z,0.40
2018-09-15T11:36:49.217Z,0.40
2018-09-15T11:39:52.307Z,0.30
2018-09-15T11:42:55.423Z,0.30
2018-09-15T11:45:58.555Z,0.30
2018-09-15T11:49:01.772Z,0.30
2018-09-15T11:52:04.901Z,0.50
2018-09-15T11:55:08.026Z,0.40
2018-09-15T11:58:11.193Z,0.30
2018-09-15T12:01:14.268Z,0.30
2018-09-15T12:04:17.577Z,0.33
2018-09-15T12:07:20.683Z,0.30
2018-09-15T12:10:23.742Z,0.30
2018-09-15T12:13:26.964Z,0.30
2018-09-15T12:16:30.041Z,0.30
2018-09-15T12:19:33.207Z,0.40
2018-09-15T12:22:36.387Z,0.53
2018-09-15T12:25:39.923Z,0.40
2018-09-15T12:28:43.178Z,0.47
2018-09-15T12:31:46.469Z,0.57
2018-09-15T12:34:49.642Z,0.20
2018-09-15T12:37:52.968Z,0.50
2018-09-15T12:40:57.120Z,0.50
2018-09-15T12:44:00.333Z,0.43
2018-09-15T12:47:03.446Z,0.50
2018-09-15T12:50:06.726Z,0.40
2018-09-15T12:53:09.933Z,0.40
2018-09-15T12:56:13.229Z,0.40
2018-09-15T12:59:16.482Z,0.47
2018-09-15T13:02:19.617Z,0.40
2018-09-15T13:05:22.856Z,0.60
2018-09-15T13:08:26.267Z,0.50
2018-09-15T13:11:29.564Z,0.40
2018-09-15T13:14:32.795Z,0.60
2018-09-15T13:17:36.195Z,0.47
2018-09-15T13:20:39.478Z,0.50
2018-09-15T13:23:42.703Z,0.40
2018-09-15T13:26:45.897Z,0.40
2018-09-15T13:29:49.272Z,0.40
2018-09-15T13:32:53.282Z,0.50
2018-09-15T13:35:56.332Z,0.40
2018-09-15T13:38:59.483Z,0.40
2018-09-15T13:42:02.964Z,0.40
2018-09-15T13:45:06.488Z,0.40
2018-09-15T13:48:09.683Z,0.50
2018-09-15T13:51:12.884Z,0.40
2018-09-15T13:54:16.494Z,0.40
2018-09-15T13:57:19.555Z,0.47
2018-09-15T14:00:22.817Z,0.37
2018-09-15T14:03:25.867Z,0.40
2018-09-15T14:06:29.014Z,0.50
2018-09-15T14:09:32.057Z,0.40
2018-09-15T14:12:35.181Z,0.40
2018-09-15T14:15:38.540Z,0.40
2018-09-15T14:18:41.919Z,1.07
2018-09-15T14:21:45.079Z,0.40
2018-09-15T14:24:48.197Z,0.40
2018-09-15T14:27:51.389Z,0.70
2018-09-15T14:30:54.592Z,0.50
2018-09-15T14:33:57.960Z,0.50
2018-09-15T14:37:01.042Z,0.50
2018-09-15T14:40:04.239Z,0.60
2018-09-15T14:43:07.407Z,0.40
2018-09-15T14:46:10.740Z,0.40
2018-09-15T14:49:13.861Z,0.50
2018-09-15T14:52:17.093Z,0.50
2018-09-15T14:55:20.339Z,0.50
2018-09-15T14:58:23.611Z,0.50
2018-09-15T15:01:26.835Z,0.40
2018-09-15T15:04:30.325Z,0.60
2018-09-15T15:07:34.042Z,0.50
2018-09-15T15:10:37.188Z,0.73
2018-09-15T15:13:40.456Z,0.57
2018-09-15T15:16:43.700Z,0.50
2018-09-15T15:19:46.881Z,0.50
2018-09-15T15:22:50.019Z,0.60
2018-09-15T15:25:53.350Z,0.47
2018-09-15T15:28:56.779Z,0.80
2018-09-15T15:32:00.096Z,0.60
2018-09-15T15:35:03.475Z,0.50
2018-09-15T15:38:07.990Z,0.53
2018-09-15T15:41:11.418Z,0.70
2018-09-15T15:44:14.836Z,0.63
2018-09-15T15:47:18.096Z,0.53
2018-09-15T15:50:21.729Z,0.53
2018-09-15T15:53:25.069Z,0.50
2018-09-15T15:56:31.237Z,0.70
2018-09-15T15:59:34.320Z,0.47
2018-09-15T16:02:37.442Z,0.70
2018-09-15T16:05:40.549Z,0.60
2018-09-15T16:08:43.715Z,0.60
2018-09-15T16:11:46.921Z,0.60
2018-09-15T16:14:49.959Z,0.70
2018-09-15T16:17:53.102Z,0.77
2018-09-15T16:20:56.267Z,0.60
2018-09-15T16:23:59.463Z,0.80
2018-09-15T16:27:02.608Z,0.80
2018-09-15T16:30:06.015Z,0.80
2018-09-15T16:33:09.222Z,0.73
2018-09-15T16:36:12.532Z,0.60
2018-09-15T16:39:15.865Z,0.60
2018-09-15T16:42:19.080Z,1.00
2018-09-15T16:45:23.234Z,0.90
2018-09-15T16:48:26.759Z,0.80
2018-09-15T16:51:30.870Z,0.83
2018-09-15T16:54:33.943Z,0.70
2018-09-15T16:57:37.063Z,0.67
2018-09-15T17:00:40.122Z,0.60
2018-09-15T17:03:44.222Z,1.07
2018-09-15T17:06:47.550Z,0.70
2018-09-15T17:09:50.708Z,1.10
2018-09-15T17:12:53.810Z,0.80
2018-09-15T17:15:57.014Z,1.30
2018-09-15T17:19:00.158Z,0.90
2018-09-15T17:22:03.293Z,1.50
2018-09-15T17:25:06.435Z,1.10
2018-09-15T17:28:09.666Z,1.57
2018-09-15T17:31:12.811Z,0.90
2018-09-15T17:34:15.774Z,1.20
2018-09-15T17:37:18.845Z,1.10
2018-09-15T17:40:22.115Z,1.33
2018-09-15T17:43:25.174Z,1.00
2018-09-15T17:46:28.250Z,1.70
2018-09-15T17:49:31.312Z,1.57
2018-09-15T17:52:34.667Z,1.20
2018-09-15T17:55:37.806Z,1.63
2018-09-15T17:58:40.961Z,1.80
2018-09-15T18:01:44.112Z,2.23
2018-09-15T18:04:47.199Z,1.87
2018-09-15T18:07:50.388Z,2.50
2018-09-15T18:10:53.802Z,2.30
2018-09-15T18:13:56.989Z,1.60
2018-09-15T18:17:00.057Z,1.80
2018-09-15T18:20:03.207Z,2.43
2018-09-15T18:23:06.618Z,1.23
2018-09-15T18:26:09.790Z,2.27
2018-09-15T18:29:13.068Z,3.10
2018-09-15T18:32:16.440Z,2.13
2018-09-15T18:35:19.697Z,1.77
2018-09-15T18:38:22.985Z,2.67
2018-09-15T18:41:26.246Z,1.30
2018-09-15T18:44:29.467Z,2.63
2018-09-15T18:47:32.588Z,1.77
2018-09-15T18:50:35.917Z,1.83
2018-09-15T18:53:39.132Z,1.43
2018-09-15T18:56:43.414Z,1.40
2018-09-15T18:59:46.845Z,1.00
2018-09-15T19:02:49.969Z,1.20
2018-09-15T19:05:53.313Z,1.50
2018-09-15T19:08:56.603Z,1.50
2018-09-15T19:11:59.730Z,1.50
2018-09-15T19:15:02.910Z,0.87
2018-09-15T19:18:06.118Z,1.10
2018-09-15T19:21:09.617Z,1.57
2018-09-15T19:24:12.790Z,0.80
2018-09-15T19:27:16.000Z,0.97
2018-09-15T19:30:19.305Z,1.47
2018-09-15T19:33:22.463Z,1.33
2018-09-15T19:36:25.616Z,1.00
2018-09-15T19:39:28.952Z,1.33
2018-09-15T19:42:32.078Z,1.50
2018-09-15T19:45:35.502Z,1.27
2018-09-15T19:48:38.646Z,1.23
2018-09-15T19:51:42.498Z,1.50
2018-09-15T19:54:45.699Z,1.30
2018-09-15T19:57:48.899Z,1.70
2018-09-15T20:00:52.075Z,1.33
2018-09-15T20:03:55.333Z,1.93
2018-09-15T20:06:58.620Z,1.60
2018-09-15T20:10:02.329Z,1.37
2018-09-15T20:13:05.978Z,1.10
2018-09-15T20:16:07.786Z,1.97
2018-09-15T20:19:09.439Z,1.67
2018-09-15T20:22:12.493Z,2.00
2018-09-15T20:25:15.818Z,2.00
2018-09-15T20:28:19.101Z,1.77
2018-09-15T20:31:22.329Z,1.60
2018-09-15T20:34:25.907Z,1.60
2018-09-15T20:37:29.300Z,2.30
2018-09-15T20:40:32.627Z,1.50
2018-09-15T20:43:35.987Z,1.40
2018-09-15T20:46:39.425Z,1.30
2018-09-15T20:49:42.598Z,1.10
2018-09-15T20:52:45.844Z,1.93
2018-09-15T20:55:49.091Z,1.33
2018-09-15T20:58:52.534Z,2.00
2018-09-15T21:01:55.796Z,2.47
2018-09-15T21:04:58.991Z,2.50
2018-09-15T21:08:02.259Z,1.70
2018-09-15T21:11:05.474Z,1.80
2018-09-15T21:14:08.678Z,1.97
2018-09-15T21:17:11.895Z,2.23
2018-09-15T21:20:15.475Z,1.73
2018-09-15T21:23:18.841Z,2.40
2018-09-15T21:26:22.097Z,1.83
2018-09-15T21:29:26.304Z,2.17
2018-09-15T21:32:29.422Z,2.00
2018-09-15T21:35:32.692Z,2.30
2018-09-15T21:38:36.061Z,3.03
2018-09-15T21:41:39.473Z,2.73
2018-09-15T21:44:42.678Z,2.47
2018-09-15T21:47:45.907Z,2.73
2018-09-15T21:50:49.170Z,2.03
2018-09-15T21:53:52.346Z,2.30
2018-09-15T21:56:56.569Z,2.80
2018-09-15T22:00:00.827Z,2.17
2018-09-15T22:03:04.100Z,2.60
2018-09-15T22:06:07.486Z,2.50
2018-09-15T22:09:11.880Z,2.13
2018-09-15T22:12:15.358Z,3.17
2018-09-15T22:15:24.972Z,3.33
2018-09-15T22:18:28.067Z,2.50
2018-09-15T22:21:31.356Z,3.43
2018-09-15T22:24:34.667Z,2.47
2018-09-15T22:27:37.804Z,3.67
2018-09-15T22:30:41.028Z,2.53
2018-09-15T22:33:44.182Z,2.60
2018-09-15T22:36:47.445Z,3.27
2018-09-15T22:39:50.732Z,3.30
2018-09-15T22:42:53.825Z,3.00
2018-09-15T22:45:57.117Z,2.47
2018-09-15T22:49:00.273Z,1.87
2018-09-15T22:52:03.466Z,3.20
2018-09-15T22:55:06.604Z,3.20
2018-09-15T22:58:09.787Z,3.50
2018-09-15T23:01:13.030Z,2.80
2018-09-15T23:04:16.759Z,2.97
2018-09-15T23:07:19.901Z,2.97
2018-09-15T23:10:23.118Z,2.50
2018-09-15T23:13:26.245Z,2.87
2018-09-15T23:16:29.392Z,3.10
2018-09-15T23:19:32.549Z,3.47
2018-09-15T23:22:35.865Z,3.03
2018-09-15T23:25:39.977Z,3.27
2018-09-15T23:28:43.150Z,3.23
2018-09-15T23:31:46.249Z,2.30
2018-09-15T23:34:49.689Z,3.07
2018-09-15T23:37:53.246Z,3.23
2018-09-15T23:40:56.494Z,3.50
2018-09-15T23:43:59.690Z,2.83
2018-09-15T23:47:02.990Z,3.30
2018-09-15T23:50:06.442Z,3.10
2018-09-15T23:53:09.708Z,2.70
2018-09-15T23:56:12.817Z,2.20
2018-09-15T23:59:16.298Z,2.70
